createdAt,value
2022-10-12T00:01:21.564Z,15.30
2022-10-12T00:03:50.402Z,15.20
2022-10-12T00:06:23.526Z,15.20
2022-10-12T00:08:55.585Z,15.20
2022-10-12T00:11:27.332Z,15.20
2022-10-12T00:13:57.406Z,15.30
2022-10-12T00:16:26.839Z,15.20
2022-10-12T00:18:57.822Z,15.20
2022-10-12T00:21:31.820Z,15.20
2022-10-12T00:24:02.508Z,15.20
2022-10-12T00:26:31.479Z,15.20
2022-10-12T00:29:03.222Z,15.10
2022-10-12T00:31:33.411Z,15.10
2022-10-12T00:34:04.252Z,15.10
2022-10-12T00:36:36.437Z,15.10
2022-10-12T00:39:08.972Z,15.20
2022-10-12T00:41:41.483Z,15.20
2022-10-12T00:44:43.856Z,15.20
2022-10-12T00:47:29.467Z,15.20
2022-10-12T00:50:03.990Z,15.10
2022-10-12T00:52:47.742Z,15.00
2022-10-12T00:55:22.060Z,15.00
2022-10-12T00:57:53.789Z,15.00
2022-10-12T01:00:24.187Z,15.00
2022-10-12T01:02:55.523Z,15.00
2022-10-12T01:05:25.587Z,15.00
2022-10-12T01:07:55.551Z,15.00
2022-10-12T01:10:24.045Z,14.90
2022-10-12T01:12:52.853Z,14.80
2022-10-12T01:15:22.564Z,14.90
2022-10-12T01:18:02.257Z,14.90
2022-10-12T01:20:55.245Z,15.00
2022-10-12T01:24:10.602Z,15.00
2022-10-12T01:27:19.867Z,14.90
2022-10-12T01:30:14.686Z,14.90
2022-10-12T01:33:22.341Z,14.90
2022-10-12T01:36:01.745Z,14.90
2022-10-12T01:38:43.612Z,14.90
2022-10-12T01:41:20.264Z,14.80
2022-10-12T01:43:52.376Z,14.80
2022-10-12T01:46:47.928Z,14.80
2022-10-12T01:49:20.572Z,14.90
2022-10-12T01:52:05.961Z,14.90
2022-10-12T01:54:53.265Z,14.90
2022-10-12T01:57:33.002Z,14.90
2022-10-12T02:00:07.461Z,14.90
2022-10-12T02:02:51.447Z,14.90
2022-10-12T02:05:29.263Z,14.80
2022-10-12T02:08:06.708Z,14.90
2022-10-12T02:10:41.589Z,14.90
2022-10-12T02:13:16.520Z,14.80
2022-10-12T02:15:46.506Z,14.70
2022-10-12T02:18:21.869Z,14.70
2022-10-12T02:20:55.552Z,14.60
2022-10-12T02:23:26.387Z,14.60
2022-10-12T02:25:58.992Z,14.70
2022-10-12T02:28:31.876Z,14.60
2022-10-12T02:31:10.553Z,14.60
2022-10-12T02:33:47.492Z,14.60
2022-10-12T02:36:27.092Z,14.60
2022-10-12T02:39:03.929Z,14.60
2022-10-12T02:41:42.138Z,14.60
2022-10-12T02:44:16.403Z,14.50
2022-10-12T02:46:47.309Z,14.50
2022-10-12T02:49:19.434Z,14.40
2022-10-12T02:51:48.605Z,14.40
2022-10-12T02:54:17.220Z,14.30
2022-10-12T02:56:47.103Z,14.40
2022-10-12T02:59:18.207Z,14.30
2022-10-12T03:01:46.926Z,14.50
2022-10-12T03:04:17.480Z,14.40
2022-10-12T03:06:46.058Z,14.30
2022-10-12T03:09:14.715Z,14.30
2022-10-12T03:11:43.998Z,14.30
2022-10-12T03:14:13.280Z,14.30
2022-10-12T03:16:42.637Z,14.10
2022-10-12T03:19:11.220Z,14.10
2022-10-12T03:21:43.550Z,14.00
2022-10-12T03:24:12.737Z,14.10
2022-10-12T03:26:41.320Z,14.10
2022-10-12T03:29:10.475Z,14.00
2022-10-12T03:31:39.054Z,14.00
2022-10-12T03:34:07.759Z,14.00
2022-10-12T03:36:36.391Z,13.90
2022-10-12T03:39:06.349Z,13.90
2022-10-12T03:41:34.963Z,13.80
2022-10-12T03:44:03.590Z,13.70
2022-10-12T03:46:32.161Z,13.70
2022-10-12T03:49:01.921Z,13.70
2022-10-12T03:51:30.766Z,13.70
2022-10-12T03:53:59.405Z,13.60
2022-10-12T03:56:29.330Z,13.50
2022-10-12T03:58:57.906Z,13.40
2022-10-12T04:01:26.865Z,13.30
2022-10-12T04:03:55.497Z,13.20
2022-10-12T04:06:24.226Z,13.20
2022-10-12T04:08:52.764Z,13.30
2022-10-12T04:11:21.540Z,13.30
2022-10-12T04:13:51.567Z,13.30
2022-10-12T04:16:20.168Z,13.30
2022-10-12T04:18:48.810Z,13.20
2022-10-12T04:21:19.967Z,13.20
2022-10-12T04:23:48.692Z,13.10
2022-10-12T04:26:17.260Z,13.00
2022-10-12T04:28:45.870Z,13.00
2022-10-12T04:31:15.935Z,13.00
2022-10-12T04:33:44.453Z,13.00
2022-10-12T04:36:13.314Z,12.90
2022-10-12T04:38:43.397Z,12.90
2022-10-12T04:41:11.990Z,12.90
2022-10-12T04:43:40.540Z,12.90
2022-10-12T04:46:09.497Z,12.80
2022-10-12T04:48:39.774Z,12.60
2022-10-12T04:51:08.358Z,12.70
2022-10-12T04:53:37.246Z,12.70
2022-10-12T04:56:07.801Z,12.70
2022-10-12T04:58:36.602Z,12.60
2022-10-12T05:01:05.576Z,12.50
2022-10-12T05:03:37.135Z,12.60
2022-10-12T05:06:11.223Z,12.70
2022-10-12T05:08:39.947Z,12.70
2022-10-12T05:11:08.574Z,12.70
2022-10-12T05:13:37.236Z,12.80
2022-10-12T05:16:06.119Z,12.70
2022-10-12T05:18:34.851Z,12.70
2022-10-12T05:21:03.470Z,12.70
2022-10-12T05:23:33.827Z,12.70
2022-10-12T05:26:02.411Z,12.60
2022-10-12T05:28:31.351Z,12.60
2022-10-12T05:31:00.171Z,12.60
2022-10-12T05:33:28.843Z,12.70
2022-10-12T05:36:00.615Z,12.90
2022-10-12T05:38:29.332Z,13.10
2022-10-12T05:41:00.955Z,13.50
2022-10-12T05:43:30.258Z,13.70
2022-10-12T05:45:58.842Z,13.90
2022-10-12T05:48:27.601Z,14.10
2022-10-12T05:50:56.706Z,14.10
2022-10-12T05:53:25.750Z,14.10
2022-10-12T05:55:55.932Z,14.10
2022-10-12T05:58:27.628Z,14.20
2022-10-12T06:00:57.013Z,14.40
2022-10-12T06:03:26.514Z,14.40
2022-10-12T06:05:55.428Z,14.30
2022-10-12T06:08:24.121Z,14.30
2022-10-12T06:10:54.096Z,14.30
2022-10-12T06:13:22.672Z,14.30
2022-10-12T06:15:53.197Z,14.30
2022-10-12T06:18:22.159Z,14.30
2022-10-12T06:21:03.994Z,14.10
2022-10-12T06:23:41.601Z,14.20
2022-10-12T06:26:10.171Z,14.10
2022-10-12T06:28:38.825Z,14.20
2022-10-12T06:31:09.173Z,14.30
2022-10-12T06:33:38.129Z,14.40
2022-10-12T06:36:07.462Z,14.50
2022-10-12T06:38:36.260Z,14.50
2022-10-12T06:41:04.856Z,14.50
2022-10-12T06:43:33.435Z,14.60
2022-10-12T06:46:02.695Z,14.70
2022-10-12T06:48:32.728Z,14.80
2022-10-12T06:51:01.406Z,14.90
2022-10-12T06:53:32.934Z,15.00
2022-10-12T06:56:06.156Z,15.10
2022-10-12T06:58:34.779Z,15.10
2022-10-12T07:01:05.021Z,15.30
2022-10-12T07:03:36.138Z,15.10
2022-10-12T07:06:10.710Z,15.30
2022-10-12T07:08:41.173Z,15.50
2022-10-12T07:11:12.884Z,15.60
2022-10-12T07:13:41.730Z,15.70
2022-10-12T07:16:10.470Z,15.60
2022-10-12T07:18:41.236Z,15.80
2022-10-12T07:21:09.821Z,15.70
2022-10-12T07:23:43.645Z,16.10
2022-10-12T07:26:13.725Z,16.40
2022-10-12T07:28:42.368Z,17.30
2022-10-12T07:31:11.866Z,17.80
2022-10-12T07:33:41.943Z,18.10
2022-10-12T07:36:17.304Z,18.30
2022-10-12T07:38:49.696Z,18.40
2022-10-12T07:41:19.067Z,18.60
2022-10-12T07:43:47.688Z,19.10
2022-10-12T07:46:16.354Z,18.90
2022-10-12T07:48:50.237Z,19.00
2022-10-12T07:51:19.457Z,19.30
2022-10-12T07:53:48.037Z,19.50
2022-10-12T07:56:16.745Z,19.80
2022-10-12T07:58:51.123Z,20.30
2022-10-12T08:01:21.897Z,20.20
2022-10-12T08:03:56.310Z,19.10
2022-10-12T08:06:30.558Z,18.80
2022-10-12T08:09:00.922Z,19.00
2022-10-12T08:11:31.187Z,19.00
2022-10-12T08:13:59.806Z,18.50
2022-10-12T08:16:28.420Z,18.30
2022-10-12T08:18:58.345Z,17.90
2022-10-12T08:21:26.954Z,17.60
2022-10-12T08:23:55.533Z,17.60
2022-10-12T08:26:24.237Z,17.50
2022-10-12T08:28:52.834Z,17.20
2022-10-12T08:31:21.580Z,17.00
2022-10-12T08:33:50.200Z,16.90
2022-10-12T08:36:20.326Z,16.90
2022-10-12T08:38:54.135Z,16.90
2022-10-12T08:41:40.045Z,16.60
2022-10-12T08:44:30.992Z,16.70
2022-10-12T08:47:06.523Z,16.70
2022-10-12T08:49:36.450Z,16.70
2022-10-12T08:52:22.289Z,16.50
2022-10-12T08:54:51.028Z,16.80
2022-10-12T08:57:20.979Z,16.90
2022-10-12T08:59:49.672Z,16.70
2022-10-12T09:02:46.946Z,16.60
2022-10-12T09:05:24.188Z,16.50
2022-10-12T09:08:01.630Z,16.80
2022-10-12T09:10:46.109Z,16.90
2022-10-12T09:13:42.994Z,16.60
2022-10-12T09:16:24.038Z,16.60
2022-10-12T09:18:57.933Z,16.60
2022-10-12T09:21:32.307Z,16.60
2022-10-12T09:24:05.703Z,16.60
2022-10-12T09:26:40.102Z,16.70
2022-10-12T09:29:24.736Z,16.90
2022-10-12T09:32:32.585Z,16.90
2022-10-12T09:35:02.566Z,16.70
2022-10-12T09:37:34.325Z,16.80
2022-10-12T09:40:04.899Z,16.90
2022-10-12T09:42:34.758Z,17.10
2022-10-12T09:45:15.862Z,17.20
2022-10-12T09:48:22.632Z,17.20
2022-10-12T09:50:58.049Z,17.20
2022-10-12T09:53:33.055Z,17.20
2022-10-12T09:56:13.167Z,17.30
2022-10-12T09:58:54.356Z,17.20
2022-10-12T10:01:26.867Z,17.30
2022-10-12T10:04:17.101Z,17.30
2022-10-12T10:06:48.436Z,17.20
2022-10-12T10:09:36.372Z,17.20
2022-10-12T10:12:24.188Z,17.10
2022-10-12T10:14:56.760Z,17.10
2022-10-12T10:17:29.543Z,17.10
2022-10-12T10:20:00.372Z,17.00
2022-10-12T10:22:31.692Z,17.00
2022-10-12T10:25:02.086Z,17.20
2022-10-12T10:27:37.834Z,17.30
2022-10-12T10:30:29.517Z,17.30
2022-10-12T10:33:17.198Z,17.30
2022-10-12T10:36:09.972Z,17.30
2022-10-12T10:38:57.262Z,17.50
2022-10-12T10:41:31.697Z,17.80
2022-10-12T10:44:00.466Z,17.70
2022-10-12T10:46:34.368Z,17.70
2022-10-12T10:49:08.253Z,17.80
2022-10-12T10:51:50.421Z,18.00
2022-10-12T10:54:38.509Z,17.90
2022-10-12T10:57:17.513Z,17.80
2022-10-12T10:59:54.678Z,17.60
2022-10-12T11:02:34.783Z,17.60
2022-10-12T11:05:15.395Z,17.70
2022-10-12T11:07:51.173Z,17.70
2022-10-12T11:10:31.791Z,17.80
2022-10-12T11:13:11.911Z,18.10
2022-10-12T11:15:47.892Z,18.30
2022-10-12T11:18:24.984Z,18.30
2022-10-12T11:20:59.909Z,18.30
2022-10-12T11:23:45.585Z,18.10
2022-10-12T11:26:27.596Z,18.10
2022-10-12T11:29:01.175Z,18.30
2022-10-12T11:31:36.151Z,18.50
2022-10-12T11:34:13.429Z,18.20
2022-10-12T11:37:07.484Z,18.00
2022-10-12T11:39:44.215Z,18.10
2022-10-12T11:42:23.542Z,18.00
2022-10-12T11:44:53.261Z,17.80
2022-10-12T11:47:34.850Z,17.70
2022-10-12T11:50:26.482Z,18.00
2022-10-12T11:52:58.372Z,18.20
2022-10-12T11:55:59.285Z,18.70
2022-10-12T11:58:55.856Z,18.90
2022-10-12T12:01:44.907Z,19.10
2022-10-12T12:04:44.783Z,19.00
2022-10-12T12:07:48.006Z,19.20
2022-10-12T12:11:02.643Z,19.30
2022-10-12T12:13:33.315Z,19.10
2022-10-12T12:16:36.601Z,18.90
2022-10-12T12:19:37.797Z,18.80
2022-10-12T12:22:29.825Z,18.60
2022-10-12T12:25:30.731Z,18.70
2022-10-12T12:28:06.479Z,18.40
2022-10-12T12:30:40.676Z,18.50
2022-10-12T12:33:31.955Z,18.60
2022-10-12T12:36:04.522Z,18.80
2022-10-12T12:38:35.949Z,18.80
2022-10-12T12:41:12.498Z,18.60
2022-10-12T12:44:04.069Z,18.50
2022-10-12T12:47:43.900Z,18.80
2022-10-12T12:50:32.756Z,18.80
2022-10-12T12:53:08.349Z,18.80
2022-10-12T12:56:01.300Z,18.50
2022-10-12T12:58:58.321Z,18.40
2022-10-12T13:02:03.063Z,18.10
2022-10-12T13:05:02.749Z,17.90
2022-10-12T13:08:15.127Z,17.80
2022-10-12T13:11:21.099Z,18.00
2022-10-12T13:14:06.758Z,18.30
2022-10-12T13:19:57.523Z,18.10
2022-10-12T13:22:33.217Z,18.20
2022-10-12T13:25:06.118Z,18.20
2022-10-12T13:27:46.365Z,18.30
2022-10-12T13:30:33.864Z,18.50
2022-10-12T13:33:13.485Z,18.60
2022-10-12T13:35:50.351Z,18.60
2022-10-12T13:38:24.225Z,18.50
2022-10-12T13:41:02.642Z,18.60
2022-10-12T13:43:38.099Z,18.60
2022-10-12T13:46:08.747Z,18.50
2022-10-12T13:48:58.865Z,18.20
2022-10-12T13:51:30.428Z,18.10
2022-10-12T13:53:59.543Z,18.20
2022-10-12T13:56:31.651Z,18.30
2022-10-12T13:59:07.059Z,18.40
2022-10-12T14:01:51.363Z,18.40
2022-10-12T14:04:20.394Z,18.30
2022-10-12T14:06:59.769Z,18.30
2022-10-12T14:09:35.128Z,18.40
2022-10-12T14:12:04.175Z,18.30
2022-10-12T14:14:37.574Z,18.30
2022-10-12T14:17:06.626Z,18.40
2022-10-12T14:19:45.076Z,18.30
2022-10-12T14:22:25.612Z,18.20
2022-10-12T14:25:12.400Z,18.10
2022-10-12T14:27:41.956Z,18.00
2022-10-12T14:30:20.909Z,17.90
2022-10-12T14:32:50.857Z,18.00
2022-10-12T14:35:27.947Z,18.10
2022-10-12T14:37:59.264Z,18.00
2022-10-12T14:40:38.614Z,18.10
2022-10-12T14:43:24.368Z,18.20
2022-10-12T14:45:53.523Z,18.00
2022-10-12T14:48:24.077Z,18.00
2022-10-12T14:50:59.385Z,18.00
2022-10-12T14:53:29.707Z,18.00
2022-10-12T14:55:58.335Z,18.10
2022-10-12T14:58:26.992Z,18.10
2022-10-12T15:00:55.724Z,18.00
2022-10-12T15:03:24.282Z,17.90
2022-10-12T15:05:52.876Z,17.80
2022-10-12T15:08:21.508Z,17.70
2022-10-12T15:10:53.218Z,17.70
2022-10-12T15:13:21.758Z,17.70
2022-10-12T15:15:50.788Z,17.60
2022-10-12T15:18:19.399Z,17.50
2022-10-12T15:20:49.799Z,17.50
2022-10-12T15:23:18.693Z,17.50
2022-10-12T15:25:54.390Z,17.40
2022-10-12T15:28:24.502Z,17.30
2022-10-12T15:33:43.391Z,17.40
2022-10-12T15:36:12.079Z,17.40
2022-10-12T15:38:40.945Z,17.40
2022-10-12T15:41:19.267Z,17.40
2022-10-12T15:43:48.074Z,17.40
2022-10-12T15:46:16.761Z,17.30
2022-10-12T15:48:45.451Z,17.40
2022-10-12T15:51:20.705Z,17.40
2022-10-12T15:53:49.436Z,17.40
2022-10-12T15:56:20.729Z,17.50
2022-10-12T15:58:49.629Z,17.40
2022-10-12T16:01:21.403Z,17.40
2022-10-12T16:03:50.541Z,17.40
2022-10-12T16:06:19.411Z,17.30
2022-10-12T16:08:48.324Z,17.30
2022-10-12T16:11:20.408Z,17.30
2022-10-12T16:13:55.610Z,17.20
2022-10-12T16:16:25.898Z,17.20
2022-10-12T16:18:54.949Z,17.20
2022-10-12T16:21:23.618Z,17.20
2022-10-12T16:23:52.266Z,17.10
2022-10-12T16:26:22.253Z,17.10
2022-10-12T16:28:51.112Z,17.10
2022-10-12T16:31:19.921Z,17.00
2022-10-12T16:33:48.531Z,17.00
2022-10-12T16:36:18.318Z,17.00
2022-10-12T16:38:47.082Z,17.00
2022-10-12T16:41:18.762Z,17.00
2022-10-12T16:43:48.770Z,17.00
2022-10-12T16:46:17.540Z,17.00
2022-10-12T16:48:46.107Z,16.90
2022-10-12T16:51:15.532Z,16.90
2022-10-12T16:53:44.128Z,16.80
2022-10-12T16:56:12.713Z,16.90
2022-10-12T16:58:41.347Z,16.80
2022-10-12T17:01:13.871Z,16.80
2022-10-12T17:03:42.974Z,16.80
2022-10-12T17:06:12.369Z,16.70
2022-10-12T17:08:41.285Z,16.70
2022-10-12T17:11:12.119Z,16.70
2022-10-12T17:13:48.106Z,16.60
2022-10-12T17:16:37.354Z,16.60
2022-10-12T17:19:05.965Z,16.50
2022-10-12T17:21:35.136Z,16.50
2022-10-12T17:24:04.419Z,16.50
2022-10-12T17:26:35.289Z,16.50
2022-10-12T17:29:08.693Z,16.50
2022-10-12T17:31:38.785Z,16.40
2022-10-12T17:34:08.400Z,16.30
2022-10-12T17:36:37.259Z,16.30
2022-10-12T17:39:06.016Z,16.30
2022-10-12T17:41:34.661Z,16.30
2022-10-12T17:44:03.273Z,16.30
2022-10-12T17:46:31.864Z,16.20
2022-10-12T17:49:03.779Z,16.20
2022-10-12T17:51:32.346Z,16.30
2022-10-12T17:54:01.643Z,16.30
2022-10-12T17:56:30.654Z,16.30
2022-10-12T17:59:02.113Z,16.30
2022-10-12T18:01:32.491Z,16.20
2022-10-12T18:04:04.758Z,16.10
2022-10-12T18:06:35.163Z,16.10
2022-10-12T18:09:06.119Z,16.10
2022-10-12T18:11:54.519Z,16.10
2022-10-12T18:14:23.241Z,16.10
2022-10-12T18:16:52.238Z,16.00
2022-10-12T18:19:22.302Z,15.90
2022-10-12T18:21:50.937Z,15.90
2022-10-12T18:24:20.791Z,15.90
2022-10-12T18:26:49.632Z,15.90
2022-10-12T18:29:18.377Z,15.90
2022-10-12T18:31:47.054Z,15.80
2022-10-12T18:34:15.634Z,15.80
2022-10-12T18:36:45.618Z,15.90
2022-10-12T18:39:15.173Z,15.90
2022-10-12T18:41:44.185Z,15.90
2022-10-12T18:44:15.106Z,15.80
2022-10-12T18:46:43.695Z,15.80
2022-10-12T18:49:13.251Z,15.80
2022-10-12T18:51:47.978Z,15.80
2022-10-12T18:54:17.182Z,15.80
2022-10-12T18:56:46.441Z,15.90
2022-10-12T18:59:17.897Z,15.90
2022-10-12T19:01:47.528Z,15.80
2022-10-12T19:04:16.728Z,15.80
2022-10-12T19:06:46.769Z,15.80
2022-10-12T19:09:15.901Z,15.70
2022-10-12T19:11:44.583Z,15.70
2022-10-12T19:14:15.834Z,15.80
2022-10-12T19:16:45.705Z,15.80
2022-10-12T19:19:20.745Z,15.70
2022-10-12T19:21:51.626Z,15.70
2022-10-12T19:24:23.053Z,15.60
2022-10-12T19:26:51.776Z,15.60
2022-10-12T19:29:20.347Z,15.60
2022-10-12T19:31:51.332Z,15.70
2022-10-12T19:34:22.188Z,15.60
2022-10-12T19:36:52.603Z,15.60
2022-10-12T19:39:23.853Z,15.60
2022-10-12T19:41:53.396Z,15.60
2022-10-12T19:44:22.519Z,15.60
2022-10-12T19:46:53.551Z,15.60
2022-10-12T19:49:22.218Z,15.60
2022-10-12T19:51:52.240Z,15.60
2022-10-12T19:54:21.030Z,15.60
2022-10-12T19:56:49.605Z,15.60
2022-10-12T19:59:18.333Z,15.50
2022-10-12T20:01:48.212Z,15.50
2022-10-12T20:04:17.660Z,15.50
2022-10-12T20:06:46.398Z,15.40
2022-10-12T20:09:16.642Z,15.50
2022-10-12T20:11:45.283Z,15.50
2022-10-12T20:14:14.262Z,15.60
2022-10-12T20:16:42.983Z,15.60
2022-10-12T20:19:11.918Z,15.50
2022-10-12T20:21:40.547Z,15.40
2022-10-12T20:24:10.857Z,15.30
2022-10-12T20:26:42.363Z,15.20
2022-10-12T20:29:10.948Z,15.30
2022-10-12T20:31:39.504Z,15.30
2022-10-12T20:34:08.121Z,15.20
2022-10-12T20:36:37.123Z,15.20
2022-10-12T20:39:06.120Z,15.10
2022-10-12T20:41:34.737Z,15.00
2022-10-12T20:44:04.770Z,15.00
2022-10-12T20:46:33.396Z,14.90
2022-10-12T20:49:03.767Z,14.80
2022-10-12T20:51:36.301Z,14.90
2022-10-12T20:54:08.789Z,14.90
2022-10-12T20:56:41.792Z,14.80
2022-10-12T20:59:12.484Z,14.70
2022-10-12T21:01:41.016Z,14.60
2022-10-12T21:04:10.252Z,14.60
2022-10-12T21:06:39.568Z,14.50
2022-10-12T21:09:08.252Z,14.50
2022-10-12T21:11:37.204Z,14.50
2022-10-12T21:14:05.766Z,14.50
2022-10-12T21:16:35.752Z,14.50
2022-10-12T21:19:04.346Z,14.50
2022-10-12T21:21:32.966Z,14.40
2022-10-12T21:24:03.899Z,14.30
2022-10-12T21:26:32.936Z,14.30
2022-10-12T21:29:02.060Z,14.20
2022-10-12T21:31:32.760Z,14.10
2022-10-12T21:34:05.443Z,14.20
2022-10-12T21:36:37.763Z,14.10
2022-10-12T21:39:12.242Z,14.10
2022-10-12T21:41:40.931Z,14.10
2022-10-12T21:44:10.583Z,14.10
2022-10-12T21:46:39.709Z,14.00
2022-10-12T21:49:09.662Z,14.00
2022-10-12T21:51:39.072Z,13.90
2022-10-12T21:54:08.514Z,13.90
2022-10-12T21:56:38.672Z,13.90
2022-10-12T21:59:08.076Z,13.90
2022-10-12T22:01:40.317Z,13.90
2022-10-12T22:04:15.544Z,14.00
2022-10-12T22:06:44.731Z,14.00
2022-10-12T22:09:19.409Z,14.00
2022-10-12T22:11:49.269Z,14.10
2022-10-12T22:14:20.220Z,14.10
2022-10-12T22:16:48.978Z,14.20
2022-10-12T22:19:20.209Z,14.20
2022-10-12T22:21:51.149Z,14.20
2022-10-12T22:24:20.691Z,14.20
2022-10-12T22:26:49.616Z,14.20
2022-10-12T22:29:18.252Z,14.20
2022-10-12T22:31:46.859Z,14.20
2022-10-12T22:34:15.406Z,14.20
2022-10-12T22:36:45.369Z,14.20
2022-10-12T22:39:13.999Z,14.20
2022-10-12T22:41:42.688Z,14.30
2022-10-12T22:44:11.321Z,14.30
2022-10-12T22:46:39.915Z,14.30
2022-10-12T22:49:08.738Z,14.20
2022-10-12T22:51:40.237Z,14.30
2022-10-12T22:54:13.268Z,14.30
2022-10-12T22:56:41.850Z,14.40
2022-10-12T22:59:16.037Z,14.50
2022-10-12T23:01:45.541Z,14.50
2022-10-12T23:04:14.202Z,14.50
2022-10-12T23:06:42.765Z,14.50
2022-10-12T23:09:12.859Z,14.50
2022-10-12T23:11:41.413Z,14.40
2022-10-12T23:14:12.530Z,14.40
2022-10-12T23:16:41.089Z,14.40
2022-10-12T23:19:11.276Z,14.40
2022-10-12T23:21:39.872Z,14.20
2022-10-12T23:24:08.774Z,14.10
2022-10-12T23:26:38.673Z,14.10
2022-10-12T23:29:07.249Z,14.10
2022-10-12T23:31:36.456Z,14.10
2022-10-12T23:34:08.511Z,14.00
2022-10-12T23:36:38.042Z,13.90
2022-10-12T23:39:07.442Z,13.70
2022-10-12T23:41:37.482Z,13.90
2022-10-12T23:44:06.364Z,14.00
2022-10-12T23:46:35.629Z,14.10
2022-10-12T23:49:04.203Z,14.20
2022-10-12T23:51:33.015Z,14.20
2022-10-12T23:54:02.105Z,14.20
2022-10-12T23:56:30.741Z,14.20
2022-10-12T23:59:00.762Z,14.10
